createdAt,value
2023-02-15T00:02:04.700Z,6.73
2023-02-15T00:04:46.436Z,7.00
2023-02-15T00:07:20.374Z,6.88
2023-02-15T00:09:48.732Z,6.57
2023-02-15T00:12:17.587Z,6.63
2023-02-15T00:14:45.729Z,6.65
2023-02-15T00:17:13.538Z,6.87
2023-02-15T00:19:41.998Z,6.98
2023-02-15T00:22:10.459Z,7.11
2023-02-15T00:24:39.556Z,6.81
2023-02-15T00:27:07.565Z,6.78
2023-02-15T00:29:35.402Z,6.71
2023-02-15T00:32:03.195Z,6.75
2023-02-15T00:34:31.034Z,6.76
2023-02-15T00:36:59.133Z,6.80
2023-02-15T00:39:28.215Z,6.77
2023-02-15T00:41:57.392Z,6.74
2023-02-15T00:44:25.152Z,6.75
2023-02-15T00:46:52.947Z,6.57
2023-02-15T00:49:22.089Z,6.45
2023-02-15T00:51:49.872Z,6.48
2023-02-15T00:54:17.676Z,6.56
2023-02-15T00:56:45.454Z,6.61
2023-02-15T00:59:15.180Z,6.00
2023-02-15T01:01:43.038Z,5.89
2023-02-15T01:04:10.843Z,6.03
2023-02-15T01:06:38.582Z,6.11
2023-02-15T01:09:06.466Z,6.05
2023-02-15T01:11:34.270Z,5.99
2023-02-15T01:14:04.109Z,6.10
2023-02-15T01:16:33.331Z,6.18
2023-02-15T01:19:01.096Z,6.23
2023-02-15T01:21:28.850Z,6.26
2023-02-15T01:23:56.608Z,6.10
2023-02-15T01:26:24.418Z,6.05
2023-02-15T01:28:52.189Z,5.48
2023-02-15T01:31:22.936Z,5.64
2023-02-15T01:33:52.111Z,5.43
2023-02-15T01:36:20.041Z,5.53
2023-02-15T01:38:48.447Z,5.49
2023-02-15T01:41:24.110Z,5.51
2023-02-15T01:43:54.471Z,5.16
2023-02-15T01:46:26.940Z,4.54
2023-02-15T01:49:03.321Z,4.98
2023-02-15T01:51:35.861Z,4.99
2023-02-15T01:54:08.440Z,4.72
2023-02-15T01:56:38.734Z,4.71
2023-02-15T01:59:10.230Z,4.90
2023-02-15T02:01:38.654Z,4.71
2023-02-15T02:04:13.462Z,4.61
2023-02-15T02:06:41.434Z,4.87
2023-02-15T02:09:09.602Z,4.61
2023-02-15T02:11:37.431Z,4.79
2023-02-15T02:14:05.543Z,4.81
2023-02-15T02:16:44.116Z,4.31
2023-02-15T02:19:57.740Z,4.17
2023-02-15T02:22:50.935Z,4.27
2023-02-15T02:25:40.406Z,4.10
2023-02-15T02:28:28.059Z,3.89
2023-02-15T02:31:18.536Z,4.17
2023-02-15T02:34:02.137Z,3.67
2023-02-15T02:36:37.720Z,3.91
2023-02-15T02:39:19.495Z,3.61
2023-02-15T02:41:57.767Z,4.05
2023-02-15T02:44:31.158Z,3.91
2023-02-15T02:47:04.354Z,4.03
2023-02-15T02:49:36.236Z,3.86
2023-02-15T02:52:06.627Z,4.08
2023-02-15T02:54:37.014Z,3.67
2023-02-15T02:57:10.050Z,3.65
2023-02-15T02:59:43.459Z,3.78
2023-02-15T03:02:15.640Z,3.83
2023-02-15T03:04:49.847Z,3.84
2023-02-15T03:07:22.953Z,3.99
2023-02-15T03:09:53.525Z,3.75
2023-02-15T03:12:24.169Z,4.03
2023-02-15T03:14:56.856Z,4.15
2023-02-15T03:17:27.766Z,3.83
2023-02-15T03:20:00.753Z,3.87
2023-02-15T03:22:33.001Z,4.01
2023-02-15T03:25:04.821Z,3.81
2023-02-15T03:27:37.147Z,3.95
2023-02-15T03:30:08.313Z,4.00
2023-02-15T03:32:39.314Z,3.82
2023-02-15T03:35:09.222Z,3.96
2023-02-15T03:37:41.225Z,3.94
2023-02-15T03:40:30.981Z,4.02
2023-02-15T03:43:13.135Z,3.76
2023-02-15T03:45:55.492Z,3.14
2023-02-15T03:48:27.817Z,3.85
2023-02-15T03:51:18.095Z,4.08
2023-02-15T03:53:48.524Z,4.23
2023-02-15T03:56:16.338Z,4.16
2023-02-15T03:59:00.621Z,3.98
2023-02-15T04:01:59.634Z,3.88
2023-02-15T04:04:33.248Z,4.13
2023-02-15T04:07:03.274Z,4.45
2023-02-15T04:09:48.584Z,4.42
2023-02-15T04:12:16.385Z,4.60
2023-02-15T04:15:01.972Z,4.65
2023-02-15T04:17:30.067Z,4.57
2023-02-15T04:20:15.460Z,4.59
2023-02-15T04:23:02.387Z,4.54
2023-02-15T04:25:30.221Z,4.49
2023-02-15T04:27:57.975Z,4.45
2023-02-15T04:30:27.928Z,4.50
2023-02-15T04:32:56.239Z,4.43
2023-02-15T04:35:24.324Z,4.38
2023-02-15T04:37:53.450Z,4.35
2023-02-15T04:40:21.333Z,4.24
2023-02-15T04:42:50.177Z,4.14
2023-02-15T04:45:18.325Z,4.01
2023-02-15T04:47:46.172Z,3.78
2023-02-15T04:50:14.018Z,3.67
2023-02-15T04:52:41.820Z,3.58
2023-02-15T04:55:11.068Z,3.67
2023-02-15T04:57:38.831Z,3.51
2023-02-15T05:00:09.478Z,3.69
2023-02-15T05:02:37.352Z,3.69
2023-02-15T05:05:05.545Z,3.85
2023-02-15T05:07:33.366Z,3.95
2023-02-15T05:10:01.127Z,3.76
2023-02-15T05:12:30.272Z,3.60
2023-02-15T05:14:58.026Z,3.72
2023-02-15T05:17:25.936Z,3.59
2023-02-15T05:19:53.716Z,3.68
2023-02-15T05:22:21.475Z,3.59
2023-02-15T05:25:07.001Z,3.49
2023-02-15T05:27:53.818Z,3.57
2023-02-15T05:30:22.033Z,3.66
2023-02-15T05:32:49.978Z,3.47
2023-02-15T05:35:18.591Z,3.51
2023-02-15T05:37:46.329Z,3.43
2023-02-15T05:40:14.271Z,3.59
2023-02-15T05:42:43.412Z,3.67
2023-02-15T05:45:11.412Z,3.72
2023-02-15T05:47:39.144Z,3.72
2023-02-15T05:50:08.212Z,4.06
2023-02-15T05:52:36.149Z,4.17
2023-02-15T05:55:05.159Z,4.35
2023-02-15T05:57:32.979Z,4.19
2023-02-15T06:00:02.104Z,3.60
2023-02-15T06:02:40.225Z,3.23
2023-02-15T06:05:09.419Z,3.21
2023-02-15T06:07:37.175Z,3.47
2023-02-15T06:10:05.963Z,3.55
2023-02-15T06:12:33.775Z,3.32
2023-02-15T06:15:02.969Z,3.28
2023-02-15T06:17:30.724Z,3.47
2023-02-15T06:19:58.582Z,3.68
2023-02-15T06:22:26.324Z,3.39
2023-02-15T06:24:54.109Z,3.36
2023-02-15T06:27:21.985Z,3.98
2023-02-15T06:29:50.242Z,4.12
2023-02-15T06:32:19.374Z,3.62
2023-02-15T06:34:48.757Z,4.20
2023-02-15T06:37:16.620Z,4.21
2023-02-15T06:39:45.120Z,3.83
2023-02-15T06:42:12.847Z,3.93
2023-02-15T06:44:40.615Z,4.31
2023-02-15T06:47:08.348Z,4.25
2023-02-15T06:49:37.429Z,4.36
2023-02-15T06:52:05.957Z,4.45
2023-02-15T06:54:33.718Z,4.56
2023-02-15T06:57:01.493Z,4.64
2023-02-15T06:59:29.243Z,4.73
2023-02-15T07:01:57.064Z,4.78
2023-02-15T07:04:24.896Z,5.02
2023-02-15T07:06:54.286Z,4.95
2023-02-15T07:09:22.117Z,4.98
2023-02-15T07:12:06.391Z,5.16
2023-02-15T07:14:34.205Z,5.26
2023-02-15T07:17:01.924Z,5.23
2023-02-15T07:19:29.809Z,5.34
2023-02-15T07:21:58.976Z,5.36
2023-02-15T07:24:26.885Z,5.50
2023-02-15T07:26:54.694Z,5.70
2023-02-15T07:29:22.456Z,5.72
2023-02-15T07:31:50.218Z,5.99
2023-02-15T07:34:17.986Z,5.80
2023-02-15T07:36:46.681Z,6.16
2023-02-15T07:39:15.779Z,6.10
2023-02-15T07:41:43.525Z,6.11
2023-02-15T07:44:14.314Z,6.20
2023-02-15T07:46:42.409Z,6.62
2023-02-15T07:49:10.319Z,6.67
2023-02-15T07:51:38.117Z,6.53
2023-02-15T07:54:05.874Z,6.71
2023-02-15T07:56:37.074Z,6.88
2023-02-15T07:59:06.058Z,7.03
2023-02-15T08:01:36.169Z,7.17
2023-02-15T08:04:05.037Z,7.27
2023-02-15T08:06:35.478Z,7.62
2023-02-15T08:09:05.956Z,7.78
2023-02-15T08:11:40.765Z,8.07
2023-02-15T08:14:10.583Z,8.27
2023-02-15T08:16:40.099Z,8.33
2023-02-15T08:19:09.825Z,8.65
2023-02-15T08:21:40.185Z,8.69
2023-02-15T08:24:09.607Z,8.47
2023-02-15T08:26:42.234Z,8.34
2023-02-15T08:29:11.080Z,8.58
2023-02-15T08:31:39.087Z,8.58
2023-02-15T08:34:07.474Z,8.29
2023-02-15T08:36:35.712Z,8.89
2023-02-15T08:39:05.997Z,9.01
2023-02-15T08:41:36.588Z,9.47
2023-02-15T08:44:09.077Z,9.09
2023-02-15T08:46:39.901Z,9.47
2023-02-15T08:49:08.366Z,8.98
2023-02-15T08:51:38.293Z,8.92
2023-02-15T08:54:07.599Z,9.89
2023-02-15T08:56:37.318Z,9.72
2023-02-15T08:59:07.516Z,9.72
2023-02-15T09:01:37.021Z,9.54
2023-02-15T09:04:09.557Z,9.39
2023-02-15T09:06:38.238Z,9.69
2023-02-15T09:09:06.503Z,9.20
2023-02-15T09:11:37.262Z,9.81
2023-02-15T09:14:09.057Z,10.01
2023-02-15T09:16:38.909Z,10.07
2023-02-15T09:19:07.652Z,10.62
2023-02-15T09:21:38.079Z,10.59
2023-02-15T09:24:07.922Z,10.37
2023-02-15T09:26:37.562Z,10.17
2023-02-15T09:29:06.720Z,10.78
2023-02-15T09:31:39.233Z,10.49
2023-02-15T09:34:07.059Z,10.98
2023-02-15T09:36:36.749Z,11.19
2023-02-15T09:39:09.510Z,11.60
2023-02-15T09:41:58.513Z,11.64
2023-02-15T09:44:41.472Z,11.38
2023-02-15T09:47:24.617Z,11.71
2023-02-15T09:49:59.883Z,12.11
2023-02-15T09:52:48.851Z,11.78
2023-02-15T09:55:35.840Z,12.14
2023-02-15T09:58:13.034Z,12.68
2023-02-15T10:00:52.231Z,12.54
2023-02-15T10:03:39.937Z,12.42
2023-02-15T10:06:20.825Z,13.03
2023-02-15T10:09:03.600Z,13.12
2023-02-15T10:11:43.498Z,13.22
2023-02-15T10:14:38.898Z,13.33
2023-02-15T10:17:19.436Z,13.31
2023-02-15T10:20:01.110Z,12.62
2023-02-15T10:22:37.708Z,13.54
2023-02-15T10:25:30.580Z,13.58
2023-02-15T10:28:05.883Z,13.71
2023-02-15T10:30:43.264Z,14.13
2023-02-15T10:33:26.750Z,13.67
2023-02-15T10:36:07.329Z,14.50
2023-02-15T10:38:41.420Z,14.84
2023-02-15T10:41:23.188Z,14.99
2023-02-15T10:44:06.990Z,14.76
2023-02-15T10:46:51.496Z,15.09
2023-02-15T10:49:40.063Z,15.37
2023-02-15T10:52:21.744Z,15.54
2023-02-15T10:54:59.730Z,15.72
2023-02-15T10:57:36.122Z,16.12
2023-02-15T11:00:12.283Z,16.31
2023-02-15T11:02:53.718Z,16.39
2023-02-15T11:05:32.576Z,16.65
2023-02-15T11:08:04.905Z,17.67
2023-02-15T11:10:36.050Z,22.47
2023-02-15T11:13:11.243Z,22.75
2023-02-15T11:15:43.398Z,24.14
2023-02-15T11:18:15.612Z,22.61
2023-02-15T11:20:52.160Z,22.32
2023-02-15T11:23:20.284Z,20.38
2023-02-15T11:25:54.724Z,22.40
2023-02-15T11:28:28.239Z,21.40
2023-02-15T11:30:58.803Z,21.33
2023-02-15T11:33:31.547Z,20.34
2023-02-15T11:36:08.055Z,20.15
2023-02-15T11:38:36.556Z,19.43
2023-02-15T11:41:07.798Z,21.58
2023-02-15T11:43:40.228Z,20.49
2023-02-15T11:46:12.334Z,20.57
2023-02-15T11:48:41.316Z,21.10
2023-02-15T11:51:16.933Z,22.06
2023-02-15T11:53:46.599Z,22.17
2023-02-15T11:56:18.667Z,22.50
2023-02-15T11:58:49.967Z,22.91
2023-02-15T12:01:24.089Z,22.01
2023-02-15T12:03:53.636Z,21.96
2023-02-15T12:06:26.735Z,21.77
2023-02-15T12:09:07.474Z,20.93
2023-02-15T12:11:38.497Z,21.07
2023-02-15T12:14:08.044Z,20.25
2023-02-15T12:16:43.609Z,21.19
2023-02-15T12:19:26.456Z,21.18
2023-02-15T12:21:55.700Z,21.90
2023-02-15T12:24:25.391Z,22.63
2023-02-15T12:27:03.188Z,21.72
2023-02-15T12:29:37.544Z,20.41
2023-02-15T12:32:05.901Z,20.72
2023-02-15T12:34:40.548Z,22.87
2023-02-15T12:37:17.526Z,22.38
2023-02-15T12:39:54.675Z,21.37
2023-02-15T12:42:22.848Z,20.00
2023-02-15T12:45:02.756Z,21.34
2023-02-15T12:47:32.208Z,21.65
2023-02-15T12:50:23.433Z,21.28
2023-02-15T12:52:53.447Z,20.61
2023-02-15T12:55:25.086Z,20.70
2023-02-15T12:58:08.017Z,20.40
2023-02-15T13:00:36.512Z,20.25
2023-02-15T13:03:04.879Z,20.72
2023-02-15T13:05:39.420Z,20.79
2023-02-15T13:08:16.404Z,22.13
2023-02-15T13:10:55.946Z,22.85
2023-02-15T13:13:27.715Z,23.02
2023-02-15T13:16:00.472Z,22.89
2023-02-15T13:18:33.467Z,23.01
2023-02-15T13:21:11.528Z,23.27
2023-02-15T13:23:43.525Z,23.13
2023-02-15T13:26:16.558Z,22.37
2023-02-15T13:28:48.280Z,22.80
2023-02-15T13:31:19.470Z,22.43
2023-02-15T13:33:51.411Z,21.97
2023-02-15T13:36:25.687Z,22.11
2023-02-15T13:39:20.419Z,22.71
2023-02-15T13:41:58.513Z,22.79
2023-02-15T13:44:42.065Z,22.74
2023-02-15T13:47:21.672Z,22.61
2023-02-15T13:50:06.508Z,21.64
2023-02-15T13:52:42.617Z,20.55
2023-02-15T13:55:27.862Z,20.06
2023-02-15T13:58:21.143Z,19.88
2023-02-15T14:00:58.346Z,20.58
2023-02-15T14:04:00.475Z,20.52
2023-02-15T14:06:48.163Z,20.84
2023-02-15T14:09:29.772Z,20.24
2023-02-15T14:12:14.371Z,19.90
2023-02-15T14:15:07.642Z,22.31
2023-02-15T14:17:48.139Z,21.85
2023-02-15T14:20:24.129Z,20.79
2023-02-15T14:23:03.882Z,22.79
2023-02-15T14:25:38.458Z,22.71
2023-02-15T14:28:13.447Z,22.63
2023-02-15T14:30:45.621Z,24.02
2023-02-15T14:33:34.950Z,24.38
2023-02-15T14:36:07.310Z,22.90
2023-02-15T14:38:49.052Z,23.03
2023-02-15T14:41:22.922Z,23.86
2023-02-15T14:44:02.388Z,23.96
2023-02-15T14:46:36.665Z,24.89
2023-02-15T14:49:08.773Z,23.99
2023-02-15T14:51:59.948Z,25.63
2023-02-15T14:54:57.998Z,24.50
2023-02-15T14:57:37.299Z,23.43
2023-02-15T15:00:33.630Z,26.08
2023-02-15T15:03:02.285Z,25.09
2023-02-15T15:05:35.369Z,24.45
2023-02-15T15:08:05.721Z,24.68
2023-02-15T15:10:51.672Z,23.26
2023-02-15T15:13:42.827Z,23.20
2023-02-15T15:16:31.956Z,21.33
2023-02-15T15:19:00.535Z,21.68
2023-02-15T15:22:03.835Z,20.15
2023-02-15T15:24:52.006Z,19.59
2023-02-15T15:27:51.283Z,18.90
2023-02-15T15:31:01.992Z,18.65
2023-02-15T15:34:08.810Z,18.29
2023-02-15T15:37:08.747Z,17.73
2023-02-15T15:40:13.918Z,17.44
2023-02-15T15:42:51.823Z,17.43
2023-02-15T15:45:47.678Z,17.03
2023-02-15T15:48:34.370Z,17.46
2023-02-15T15:51:06.694Z,17.43
2023-02-15T15:53:43.379Z,17.60
2023-02-15T15:56:16.977Z,17.45
2023-02-15T15:58:48.571Z,17.23
2023-02-15T16:01:17.262Z,17.00
2023-02-15T16:03:53.261Z,16.90
2023-02-15T16:06:36.161Z,16.52
2023-02-15T16:09:18.575Z,16.40
2023-02-15T16:11:48.491Z,16.39
2023-02-15T16:14:19.291Z,16.26
2023-02-15T16:16:53.553Z,15.96
2023-02-15T16:19:26.508Z,15.95
2023-02-15T16:21:55.687Z,15.49
2023-02-15T16:24:35.849Z,15.33
2023-02-15T16:27:38.309Z,15.18
2023-02-15T16:30:34.045Z,14.65
2023-02-15T16:33:08.513Z,14.62
2023-02-15T16:35:38.277Z,14.47
2023-02-15T16:38:06.733Z,14.30
2023-02-15T16:41:00.279Z,14.43
2023-02-15T16:43:30.412Z,14.24
2023-02-15T16:46:06.268Z,13.96
2023-02-15T16:48:41.204Z,13.73
2023-02-15T16:51:09.854Z,13.57
2023-02-15T16:53:39.043Z,13.71
2023-02-15T16:56:08.552Z,13.59
2023-02-15T16:58:40.320Z,12.86
2023-02-15T17:01:11.927Z,12.61
2023-02-15T17:03:41.060Z,12.41
2023-02-15T17:06:22.416Z,12.89
2023-02-15T17:08:50.504Z,13.02
2023-02-15T17:11:21.862Z,12.94
2023-02-15T17:14:21.750Z,12.84
2023-02-15T17:16:51.865Z,12.88
2023-02-15T17:19:27.157Z,12.71
2023-02-15T17:21:58.445Z,12.62
2023-02-15T17:24:40.059Z,12.43
2023-02-15T17:27:17.809Z,12.68
2023-02-15T17:29:48.752Z,12.61
2023-02-15T17:32:20.210Z,12.48
2023-02-15T17:35:00.673Z,12.47
2023-02-15T17:37:32.828Z,12.39
2023-02-15T17:40:02.987Z,12.28
2023-02-15T17:42:32.158Z,11.98
2023-02-15T17:45:00.052Z,12.01
2023-02-15T17:47:30.020Z,12.07
2023-02-15T17:49:57.949Z,11.93
2023-02-15T17:52:28.401Z,12.01
2023-02-15T17:55:13.903Z,11.96
2023-02-15T17:57:43.112Z,11.75
2023-02-15T18:00:33.391Z,11.84
2023-02-15T18:03:18.901Z,11.64
2023-02-15T18:06:04.099Z,11.68
2023-02-15T18:08:49.356Z,11.67
2023-02-15T18:11:36.945Z,11.26
2023-02-15T18:14:07.414Z,11.25
2023-02-15T18:16:37.432Z,11.35
2023-02-15T18:19:06.669Z,11.51
2023-02-15T18:21:34.581Z,11.35
2023-02-15T18:24:02.478Z,11.28
2023-02-15T18:26:31.114Z,11.26
2023-02-15T18:28:58.919Z,11.06
2023-02-15T18:31:28.207Z,11.17
2023-02-15T18:33:59.305Z,11.13
2023-02-15T18:36:30.293Z,11.06
2023-02-15T18:38:58.438Z,11.04
2023-02-15T18:41:27.012Z,11.13
2023-02-15T18:43:55.455Z,10.67
2023-02-15T18:46:23.246Z,10.93
2023-02-15T18:48:52.492Z,10.79
2023-02-15T18:51:22.902Z,10.90
2023-02-15T18:53:53.970Z,11.15
2023-02-15T18:56:24.071Z,10.97
2023-02-15T18:58:51.822Z,10.72
2023-02-15T19:01:21.656Z,10.80
2023-02-15T19:03:51.550Z,10.76
2023-02-15T19:06:23.042Z,10.70
2023-02-15T19:08:53.554Z,10.93
2023-02-15T19:11:25.069Z,10.88
2023-02-15T19:13:53.810Z,10.83
2023-02-15T19:16:31.871Z,10.46
2023-02-15T19:19:00.288Z,10.85
2023-02-15T19:21:31.832Z,10.63
2023-02-15T19:24:03.013Z,10.64
2023-02-15T19:26:44.442Z,10.44
2023-02-15T19:29:15.585Z,10.38
2023-02-15T19:31:43.555Z,10.40
2023-02-15T19:34:16.517Z,10.28
2023-02-15T19:36:48.060Z,10.29
2023-02-15T19:39:24.540Z,10.35
2023-02-15T19:41:52.975Z,10.13
2023-02-15T19:44:21.106Z,10.08
2023-02-15T19:46:49.362Z,10.03
2023-02-15T19:49:17.328Z,9.92
2023-02-15T19:51:47.522Z,9.76
2023-02-15T19:54:28.203Z,10.02
2023-02-15T19:56:56.533Z,9.77
2023-02-15T19:59:26.198Z,10.05
2023-02-15T20:01:54.604Z,9.91
2023-02-15T20:04:22.821Z,9.98
2023-02-15T20:06:53.706Z,9.34
2023-02-15T20:09:24.337Z,9.34
2023-02-15T20:11:53.176Z,8.97
2023-02-15T20:14:21.048Z,9.08
2023-02-15T20:16:48.878Z,9.08
2023-02-15T20:19:16.693Z,8.95
2023-02-15T20:21:51.681Z,8.97
2023-02-15T20:24:22.990Z,8.93
2023-02-15T20:26:50.762Z,8.66
2023-02-15T20:29:19.846Z,8.72
2023-02-15T20:31:47.770Z,8.52
2023-02-15T20:34:15.662Z,8.73
2023-02-15T20:36:43.434Z,8.42
2023-02-15T20:39:17.533Z,8.61
2023-02-15T20:41:49.333Z,8.56
2023-02-15T20:44:23.424Z,8.59
2023-02-15T20:46:53.512Z,8.52
2023-02-15T20:49:22.011Z,8.75
2023-02-15T20:51:49.759Z,8.81
2023-02-15T20:54:19.925Z,9.17
2023-02-15T20:56:49.426Z,8.95
2023-02-15T20:59:26.446Z,8.76
2023-02-15T21:01:58.957Z,8.75
2023-02-15T21:04:31.398Z,8.88
2023-02-15T21:06:59.213Z,8.78
2023-02-15T21:09:27.039Z,8.90
2023-02-15T21:11:59.057Z,8.79
2023-02-15T21:14:28.157Z,8.74
2023-02-15T21:16:56.273Z,8.98
2023-02-15T21:19:25.775Z,8.82
2023-02-15T21:21:54.574Z,8.28
2023-02-15T21:24:25.422Z,8.40
2023-02-15T21:26:54.790Z,8.76
2023-02-15T21:29:26.954Z,8.99
2023-02-15T21:31:55.004Z,9.02
2023-02-15T21:34:22.871Z,9.09
2023-02-15T21:36:51.628Z,8.96
2023-02-15T21:39:23.065Z,9.06
2023-02-15T21:42:10.232Z,8.91
2023-02-15T21:44:58.696Z,9.09
2023-02-15T21:47:46.326Z,8.94
2023-02-15T21:50:33.644Z,9.02
2023-02-15T21:53:02.016Z,8.67
2023-02-15T21:55:31.214Z,8.80
2023-02-15T21:57:59.103Z,8.79
2023-02-15T22:00:30.366Z,8.62
2023-02-15T22:03:00.900Z,8.62
2023-02-15T22:05:38.132Z,8.48
2023-02-15T22:08:12.072Z,8.63
2023-02-15T22:10:41.624Z,8.48
2023-02-15T22:13:17.146Z,8.68
2023-02-15T22:15:59.159Z,8.51
2023-02-15T22:18:32.249Z,8.40
2023-02-15T22:21:21.358Z,8.40
2023-02-15T22:23:50.492Z,8.58
2023-02-15T22:26:23.586Z,8.55
2023-02-15T22:28:51.790Z,8.64
2023-02-15T22:31:22.592Z,8.60
2023-02-15T22:33:51.102Z,8.56
2023-02-15T22:36:24.942Z,8.23
2023-02-15T22:38:53.215Z,8.45
2023-02-15T22:41:23.528Z,8.27
2023-02-15T22:43:51.846Z,8.17
2023-02-15T22:46:24.659Z,8.10
2023-02-15T22:48:52.677Z,8.05
2023-02-15T22:51:22.908Z,7.82
2023-02-15T22:53:52.404Z,7.78
2023-02-15T22:56:26.990Z,7.65
2023-02-15T22:59:00.492Z,8.07
2023-02-15T23:01:32.733Z,8.20
2023-02-15T23:04:03.482Z,8.32
2023-02-15T23:06:32.091Z,8.32
2023-02-15T23:09:00.668Z,8.12
2023-02-15T23:11:28.691Z,7.96
2023-02-15T23:13:56.416Z,8.10
2023-02-15T23:16:24.200Z,7.97
2023-02-15T23:18:53.641Z,7.96
2023-02-15T23:21:23.666Z,8.14
2023-02-15T23:23:54.523Z,8.15
2023-02-15T23:26:24.364Z,7.88
2023-02-15T23:28:53.530Z,8.03
2023-02-15T23:31:24.761Z,7.86
2023-02-15T23:33:55.194Z,7.89
2023-02-15T23:36:28.367Z,7.99
2023-02-15T23:38:57.335Z,8.03
2023-02-15T23:41:27.052Z,7.95
2023-02-15T23:43:58.535Z,7.87
2023-02-15T23:46:30.423Z,7.67
2023-02-15T23:48:59.712Z,7.82
2023-02-15T23:51:30.761Z,7.83
2023-02-15T23:53:59.175Z,8.04
2023-02-15T23:56:26.954Z,7.97
2023-02-15T23:58:54.945Z,8.05
